createdAt,value
2023-05-04T00:00:03.570Z,1.14
2023-05-04T00:03:25.667Z,1.16
2023-05-04T00:06:49.457Z,1.11
2023-05-04T00:10:12.129Z,1.06
2023-05-04T00:13:33.809Z,1.05
2023-05-04T00:16:55.665Z,1.00
2023-05-04T00:20:17.549Z,0.92
2023-05-04T00:23:40.536Z,0.89
2023-05-04T00:27:05.292Z,0.84
2023-05-04T00:30:27.271Z,0.81
2023-05-04T00:33:49.028Z,0.77
2023-05-04T00:37:10.690Z,0.72
2023-05-04T00:40:35.294Z,0.67
2023-05-04T00:43:57.212Z,0.62
2023-05-04T00:47:19.802Z,0.61
2023-05-04T00:50:42.248Z,0.59
2023-05-04T00:54:04.594Z,0.51
2023-05-04T00:57:28.224Z,0.49
2023-05-04T01:00:50.007Z,0.52
2023-05-04T01:04:13.094Z,0.48
2023-05-04T01:07:44.020Z,0.37
2023-05-04T01:11:12.371Z,0.42
2023-05-04T01:14:37.356Z,0.39
2023-05-04T01:17:59.095Z,0.38
2023-05-04T01:21:20.781Z,0.35
2023-05-04T01:24:44.192Z,0.33
2023-05-04T01:28:09.648Z,0.28
2023-05-04T01:31:32.744Z,0.26
2023-05-04T01:34:55.471Z,0.23
2023-05-04T01:38:17.645Z,0.19
2023-05-04T01:41:41.726Z,0.17
2023-05-04T01:45:04.624Z,0.16
2023-05-04T01:48:28.430Z,0.12
2023-05-04T01:51:50.580Z,0.06
2023-05-04T01:55:12.634Z,0.03
2023-05-04T01:58:35.898Z,-0.01
2023-05-04T02:01:57.739Z,-0.03
2023-05-04T02:05:19.664Z,-0.08
2023-05-04T02:08:41.548Z,-0.10
2023-05-04T02:12:03.856Z,-0.13
2023-05-04T02:15:27.348Z,-0.17
2023-05-04T02:18:49.529Z,-0.17
2023-05-04T02:22:11.469Z,-0.21
2023-05-04T02:25:33.422Z,-0.26
2023-05-04T02:28:55.169Z,-0.28
2023-05-04T02:32:18.607Z,-0.30
2023-05-04T02:35:40.615Z,-0.36
2023-05-04T02:39:02.496Z,-0.37
2023-05-04T02:42:24.761Z,-0.39
2023-05-04T02:45:46.760Z,-0.38
2023-05-04T02:49:10.125Z,-0.39
2023-05-04T02:52:32.020Z,-0.39
2023-05-04T02:55:54.145Z,-0.39
2023-05-04T02:59:15.978Z,-0.39
2023-05-04T03:02:37.906Z,-0.39
2023-05-04T03:06:01.250Z,-0.50
2023-05-04T03:09:23.183Z,-0.24
2023-05-04T03:12:45.289Z,-0.22
2023-05-04T03:16:07.369Z,-0.16
2023-05-04T03:19:29.179Z,-0.12
2023-05-04T03:22:52.304Z,-0.07
2023-05-04T03:26:14.246Z,-0.05
2023-05-04T03:29:36.206Z,0.04
2023-05-04T03:32:58.570Z,0.06
2023-05-04T03:36:20.730Z,0.06
2023-05-04T03:39:43.890Z,0.06
2023-05-04T03:43:05.995Z,0.09
2023-05-04T03:46:27.834Z,0.15
2023-05-04T03:49:49.553Z,0.24
2023-05-04T03:53:11.570Z,0.29
2023-05-04T03:56:34.654Z,0.28
2023-05-04T03:59:57.851Z,0.31
2023-05-04T04:03:20.248Z,0.33
2023-05-04T04:06:43.428Z,0.37
2023-05-04T04:10:06.121Z,0.38
2023-05-04T04:13:29.649Z,0.40
2023-05-04T04:16:51.751Z,0.45
2023-05-04T04:20:14.534Z,0.51
2023-05-04T04:23:36.581Z,0.57
2023-05-04T04:26:58.546Z,0.62
2023-05-04T04:30:21.932Z,0.61
2023-05-04T04:33:43.970Z,0.77
2023-05-04T04:37:06.239Z,0.86
2023-05-04T04:40:28.326Z,0.97
2023-05-04T04:43:50.132Z,1.13
2023-05-04T04:47:13.944Z,1.33
2023-05-04T04:50:39.408Z,1.46
2023-05-04T04:54:01.211Z,1.59
2023-05-04T04:57:23.183Z,1.72
2023-05-04T05:00:47.634Z,1.87
2023-05-04T05:04:11.305Z,1.96
2023-05-04T05:07:33.514Z,1.96
2023-05-04T05:10:56.389Z,2.02
2023-05-04T05:14:18.593Z,2.17
2023-05-04T05:17:40.567Z,2.25
2023-05-04T05:21:03.964Z,2.32
2023-05-04T05:24:25.983Z,2.22
2023-05-04T05:27:47.737Z,2.20
2023-05-04T05:31:09.917Z,2.34
2023-05-04T05:34:31.774Z,2.54
2023-05-04T05:37:55.455Z,2.57
2023-05-04T05:41:17.235Z,2.69
2023-05-04T05:44:38.843Z,2.91
2023-05-04T05:48:00.703Z,3.08
2023-05-04T05:51:22.401Z,3.25
2023-05-04T05:54:45.505Z,3.41
2023-05-04T05:58:08.734Z,3.56
2023-05-04T06:01:31.225Z,3.58
2023-05-04T06:04:52.824Z,3.67
2023-05-04T06:08:14.638Z,3.56
2023-05-04T06:11:38.064Z,3.38
2023-05-04T06:15:00.347Z,3.33
2023-05-04T06:18:22.745Z,3.50
2023-05-04T06:21:44.737Z,3.47
2023-05-04T06:25:08.093Z,3.49
2023-05-04T06:28:31.568Z,3.62
2023-05-04T06:31:53.623Z,3.67
2023-05-04T06:35:15.407Z,3.82
2023-05-04T06:38:38.895Z,3.90
2023-05-04T06:42:01.067Z,3.74
2023-05-04T06:45:24.373Z,3.47
2023-05-04T06:48:46.326Z,3.47
2023-05-04T06:52:08.361Z,3.51
2023-05-04T06:55:30.160Z,3.32
2023-05-04T06:58:52.168Z,3.71
2023-05-04T07:02:15.486Z,4.02
2023-05-04T07:05:37.752Z,4.41
2023-05-04T07:08:59.652Z,4.46
2023-05-04T07:12:21.619Z,4.36
2023-05-04T07:15:43.517Z,4.23
2023-05-04T07:19:07.182Z,4.08
2023-05-04T07:22:29.951Z,4.04
2023-05-04T07:25:53.769Z,4.27
2023-05-04T07:29:15.850Z,4.69
2023-05-04T07:32:37.583Z,4.96
2023-05-04T07:36:01.291Z,5.20
2023-05-04T07:39:23.599Z,5.23
2023-05-04T07:42:45.955Z,5.09
2023-05-04T07:46:08.131Z,5.10
2023-05-04T07:49:30.133Z,5.18
2023-05-04T07:52:53.607Z,5.30
2023-05-04T07:56:15.744Z,5.13
2023-05-04T07:59:37.489Z,5.09
2023-05-04T08:02:59.434Z,4.99
2023-05-04T08:06:22.184Z,5.08
2023-05-04T08:09:45.635Z,5.14
2023-05-04T08:13:07.744Z,5.16
2023-05-04T08:16:29.623Z,5.07
2023-05-04T08:19:51.371Z,5.04
2023-05-04T08:23:13.432Z,5.11
2023-05-04T08:26:38.396Z,5.30
2023-05-04T08:30:00.267Z,5.48
2023-05-04T08:33:22.068Z,5.45
2023-05-04T08:36:43.984Z,5.49
2023-05-04T08:40:07.143Z,5.57
2023-05-04T08:51:46.889Z,5.56
2023-05-04T08:55:12.871Z,5.52
2023-05-04T08:58:38.131Z,5.60
2023-05-04T09:02:00.528Z,5.50
2023-05-04T09:05:22.581Z,5.38
2023-05-04T09:08:46.275Z,5.55
2023-05-04T09:12:08.722Z,5.85
2023-05-04T09:15:31.685Z,6.12
2023-05-04T09:18:53.694Z,6.19
2023-05-04T09:22:17.328Z,6.10
2023-05-04T09:25:49.885Z,5.95
2023-05-04T09:29:13.506Z,5.90
2023-05-04T09:32:45.895Z,5.87
2023-05-04T09:36:15.683Z,5.74
2023-05-04T09:39:37.788Z,5.65
2023-05-04T09:43:01.222Z,5.57
2023-05-04T09:46:23.244Z,5.53
2023-05-04T09:49:44.906Z,5.65
2023-05-04T09:53:08.867Z,5.86
2023-05-04T09:56:40.057Z,6.03
2023-05-04T10:00:04.577Z,6.24
2023-05-04T10:03:28.221Z,6.47
2023-05-04T10:06:50.446Z,6.52
2023-05-04T10:10:13.684Z,6.33
2023-05-04T10:13:35.773Z,6.08
2023-05-04T10:17:17.254Z,5.87
2023-05-04T10:21:09.598Z,5.66
2023-05-04T10:24:54.848Z,5.58
2023-05-04T10:28:29.611Z,5.66
2023-05-04T10:31:52.047Z,5.69
2023-05-04T10:35:18.787Z,5.84
2023-05-04T10:38:42.355Z,5.95
2023-05-04T10:42:05.826Z,6.03
2023-05-04T10:45:36.418Z,6.10
2023-05-04T10:48:58.325Z,6.18
2023-05-04T10:52:21.539Z,6.18
2023-05-04T10:55:45.188Z,6.12
2023-05-04T10:59:11.117Z,6.03
2023-05-04T11:02:34.139Z,6.25
2023-05-04T11:05:55.868Z,6.35
2023-05-04T11:09:19.691Z,6.54
2023-05-04T11:12:41.469Z,6.75
2023-05-04T11:16:03.851Z,6.71
2023-05-04T11:19:25.982Z,6.54
2023-05-04T11:22:48.054Z,6.29
2023-05-04T11:26:12.522Z,6.10
2023-05-04T11:29:34.373Z,6.08
2023-05-04T11:33:00.450Z,6.14
2023-05-04T11:36:23.690Z,6.38
2023-05-04T11:39:45.465Z,6.57
2023-05-04T11:43:11.760Z,6.89
2023-05-04T11:46:35.101Z,7.24
2023-05-04T11:49:57.338Z,7.32
2023-05-04T11:53:21.750Z,7.27
2023-05-04T11:56:44.137Z,7.09
2023-05-04T12:00:09.269Z,7.03
2023-05-04T12:03:51.197Z,7.06
2023-05-04T12:07:14.610Z,7.09
2023-05-04T12:10:36.474Z,7.22
2023-05-04T12:14:06.272Z,7.27
2023-05-04T12:17:41.500Z,7.24
2023-05-04T12:21:10.051Z,6.96
2023-05-04T12:24:31.953Z,6.79
2023-05-04T12:27:54.752Z,6.79
2023-05-04T12:31:17.429Z,6.85
2023-05-04T12:34:40.902Z,6.99
2023-05-04T12:38:03.067Z,7.14
2023-05-04T12:41:25.245Z,7.21
2023-05-04T12:44:47.387Z,7.25
2023-05-04T12:48:09.077Z,7.17
2023-05-04T12:51:32.448Z,7.07
2023-05-04T12:54:54.145Z,7.01
2023-05-04T12:58:16.014Z,7.01
2023-05-04T13:01:38.169Z,7.01
2023-05-04T13:04:59.893Z,7.01
2023-05-04T13:08:23.777Z,6.92
2023-05-04T13:11:45.957Z,6.98
2023-05-04T13:15:09.280Z,7.02
2023-05-04T13:18:31.021Z,7.12
2023-05-04T13:21:52.958Z,7.17
2023-05-04T13:25:16.753Z,7.03
2023-05-04T13:28:39.400Z,6.95
2023-05-04T13:32:01.360Z,6.94
2023-05-04T13:35:24.002Z,7.00
2023-05-04T13:38:45.772Z,7.05
2023-05-04T13:42:09.056Z,7.10
2023-05-04T13:45:31.016Z,7.03
2023-05-04T13:48:54.220Z,6.96
2023-05-04T13:52:17.523Z,6.96
2023-05-04T13:55:39.518Z,6.79
2023-05-04T13:59:02.591Z,6.72
2023-05-04T14:02:24.841Z,6.69
2023-05-04T14:05:47.065Z,6.75
2023-05-04T14:09:09.762Z,6.93
2023-05-04T14:12:31.749Z,7.19
2023-05-04T14:15:54.794Z,7.15
2023-05-04T14:19:16.761Z,7.04
2023-05-04T14:22:41.273Z,6.94
2023-05-04T14:26:02.949Z,6.80
2023-05-04T14:29:24.852Z,6.75
2023-05-04T14:32:48.254Z,6.63
2023-05-04T14:36:11.587Z,6.68
2023-05-04T14:39:33.547Z,6.76
2023-05-04T14:42:55.365Z,6.59
2023-05-04T14:46:17.444Z,6.71
2023-05-04T14:49:42.972Z,6.65
2023-05-04T14:53:04.905Z,6.70
2023-05-04T14:56:28.862Z,6.75
2023-05-04T14:59:51.295Z,6.67
2023-05-04T15:03:13.408Z,6.57
2023-05-04T15:06:36.496Z,6.56
2023-05-04T15:09:58.529Z,6.54
2023-05-04T15:13:20.870Z,6.47
2023-05-04T15:16:43.205Z,6.55
2023-05-04T15:20:05.994Z,6.68
2023-05-04T15:23:29.283Z,6.83
2023-05-04T15:26:51.340Z,6.88
2023-05-04T15:30:13.818Z,6.83
2023-05-04T15:33:35.587Z,6.78
2023-05-04T15:36:57.490Z,6.60
2023-05-04T15:40:21.001Z,6.27
2023-05-04T15:43:43.150Z,6.36
2023-05-04T15:47:05.491Z,6.24
2023-05-04T15:50:27.371Z,6.04
2023-05-04T15:53:49.152Z,6.06
2023-05-04T15:57:12.326Z,6.07
2023-05-04T16:00:34.508Z,6.05
2023-05-04T16:03:59.583Z,6.03
2023-05-04T16:07:21.695Z,6.11
2023-05-04T16:10:43.491Z,6.10
2023-05-04T16:14:06.762Z,6.16
2023-05-04T16:17:30.690Z,6.20
2023-05-04T16:20:54.714Z,6.24
2023-05-04T16:24:16.740Z,6.59
2023-05-04T16:27:38.636Z,6.91
2023-05-04T16:31:01.779Z,7.14
2023-05-04T16:34:23.815Z,7.68
2023-05-04T16:37:45.685Z,7.96
2023-05-04T16:41:07.866Z,8.08
2023-05-04T16:44:31.402Z,8.34
2023-05-04T16:47:54.628Z,8.41
2023-05-04T16:51:16.747Z,8.49
2023-05-04T16:54:38.444Z,8.57
2023-05-04T16:58:00.684Z,8.65
2023-05-04T17:01:23.095Z,8.63
2023-05-04T17:04:46.371Z,8.59
2023-05-04T17:08:08.366Z,8.74
2023-05-04T17:11:30.514Z,8.98
2023-05-04T17:14:52.331Z,9.04
2023-05-04T17:18:14.329Z,9.08
2023-05-04T17:21:37.831Z,8.81
2023-05-04T17:25:00.006Z,8.36
2023-05-04T17:28:22.122Z,8.03
2023-05-04T17:31:44.107Z,8.08
2023-05-04T17:35:20.336Z,8.21
2023-05-04T17:38:48.347Z,8.33
2023-05-04T17:42:10.906Z,8.33
2023-05-04T17:45:33.170Z,8.16
2023-05-04T17:48:56.605Z,7.80
2023-05-04T17:52:18.704Z,7.44
2023-05-04T17:55:41.853Z,7.03
2023-05-04T17:59:03.881Z,6.67
2023-05-04T18:02:25.599Z,6.37
2023-05-04T18:05:47.630Z,6.06
2023-05-04T18:09:09.406Z,5.89
2023-05-04T18:12:33.306Z,5.65
2023-05-04T18:15:56.229Z,5.39
2023-05-04T18:19:23.925Z,5.09
2023-05-04T18:22:46.698Z,4.86
2023-05-04T18:26:08.380Z,4.69
2023-05-04T18:29:32.272Z,4.52
2023-05-04T18:32:54.031Z,4.38
2023-05-04T18:36:15.799Z,4.28
2023-05-04T18:39:38.141Z,4.15
2023-05-04T18:42:59.855Z,4.00
2023-05-04T18:46:23.467Z,3.81
2023-05-04T18:49:45.481Z,3.57
2023-05-04T18:53:07.703Z,3.57
2023-05-04T18:56:29.640Z,3.42
2023-05-04T18:59:52.030Z,3.28
2023-05-04T19:03:15.448Z,3.16
2023-05-04T19:06:37.617Z,3.06
2023-05-04T19:09:59.383Z,2.95
2023-05-04T19:13:22.051Z,2.89
2023-05-04T19:16:43.898Z,2.80
2023-05-04T19:20:09.091Z,2.65
2023-05-04T19:23:31.100Z,2.52
2023-05-04T19:26:53.145Z,2.37
2023-05-04T19:30:15.301Z,2.14
2023-05-04T19:33:48.076Z,2.09
2023-05-04T19:37:12.659Z,1.98
2023-05-04T19:40:34.374Z,1.90
2023-05-04T19:43:56.120Z,1.81
2023-05-04T19:47:18.245Z,1.71
2023-05-04T19:50:40.202Z,1.62
2023-05-04T19:54:03.437Z,1.53
2023-05-04T19:57:25.664Z,1.47
2023-05-04T20:00:47.416Z,1.40
2023-05-04T20:04:09.555Z,1.31
2023-05-04T20:07:31.544Z,1.30
2023-05-04T20:10:54.923Z,1.26
2023-05-04T20:14:17.013Z,1.19
2023-05-04T20:17:39.059Z,1.16
2023-05-04T20:21:00.956Z,1.02
2023-05-04T20:24:23.282Z,1.03
2023-05-04T20:27:48.808Z,0.93
2023-05-04T20:31:10.880Z,0.80
2023-05-04T20:34:33.088Z,0.69
2023-05-04T20:37:55.305Z,0.61
2023-05-04T20:41:16.939Z,0.54
2023-05-04T20:44:40.349Z,0.44
2023-05-04T20:48:04.055Z,0.35
2023-05-04T20:51:26.647Z,0.29
2023-05-04T20:54:50.629Z,0.21
2023-05-04T20:58:12.360Z,0.12
2023-05-04T21:01:36.075Z,0.10
2023-05-04T21:04:58.718Z,0.02
2023-05-04T21:08:20.640Z,-0.01
2023-05-04T21:11:42.458Z,-0.06
2023-05-04T21:15:04.569Z,-0.11
2023-05-04T21:18:27.650Z,-0.18
2023-05-04T21:21:49.674Z,-0.22
2023-05-04T21:25:11.805Z,-0.25
2023-05-04T21:28:33.521Z,-0.27
2023-05-04T21:31:55.986Z,-0.32
2023-05-04T21:35:21.272Z,-0.39
2023-05-04T21:38:43.555Z,-0.44
2023-05-04T21:42:05.560Z,-0.52
2023-05-04T21:45:27.413Z,-0.59
2023-05-04T21:48:49.328Z,-0.64
2023-05-04T21:52:12.536Z,-0.68
2023-05-04T21:55:34.425Z,-0.79
2023-05-04T21:58:56.521Z,-0.77
2023-05-04T22:02:18.581Z,-0.86
2023-05-04T22:05:40.657Z,-0.93
2023-05-04T22:09:04.265Z,-1.06
2023-05-04T22:12:26.285Z,-1.07
2023-05-04T22:15:50.333Z,-1.14
2023-05-04T22:19:12.942Z,-1.19
2023-05-04T22:22:34.591Z,-1.20
2023-05-04T22:25:57.810Z,-1.22
2023-05-04T22:29:19.985Z,-1.26
2023-05-04T22:32:41.923Z,-1.32
2023-05-04T22:36:03.670Z,-1.37
2023-05-04T22:39:25.452Z,-1.42
2023-05-04T22:42:48.698Z,-1.47
2023-05-04T22:46:15.883Z,-1.49
2023-05-04T22:49:37.928Z,-1.53
2023-05-04T22:52:59.776Z,-1.55
2023-05-04T22:56:21.430Z,-1.60
2023-05-04T22:59:44.483Z,-1.68
2023-05-04T23:03:06.794Z,-1.71
2023-05-04T23:06:28.995Z,-1.73
2023-05-04T23:09:50.461Z,-1.75
2023-05-04T23:13:12.853Z,-1.77
2023-05-04T23:16:36.096Z,-1.82
2023-05-04T23:19:58.088Z,-1.89
2023-05-04T23:23:19.637Z,-1.92
2023-05-04T23:26:41.834Z,-1.97
2023-05-04T23:30:04.029Z,-2.03
2023-05-04T23:33:27.158Z,-2.08
2023-05-04T23:36:49.297Z,-2.14
2023-05-04T23:40:12.331Z,-2.17
2023-05-04T23:43:34.367Z,-2.18
2023-05-04T23:46:55.992Z,-2.21
2023-05-04T23:50:19.694Z,-2.26
2023-05-04T23:53:41.677Z,-2.27
2023-05-04T23:57:03.761Z,-2.29
